sensor_id;sensor_type;location;lat;lon;timestamp;pressure;altitude;pressure_sealevel;temperature;humidity
2397;BME280;1209;48.410;9.054;2023-03-14T00:01:51;94739.97;;;10.13;100.00
2397;BME280;1209;48.410;9.054;2023-03-14T00:04:16;94725.56;;;10.10;100.00
2397;BME280;1209;48.410;9.054;2023-03-14T00:06:42;94683.44;;;10.06;100.00
2397;BME280;1209;48.410;9.054;2023-03-14T00:09:07;94674.22;;;10.04;100.00
2397;BME280;1209;48.410;9.054;2023-03-14T00:11:33;94658.53;;;10.10;100.00
2397;BME280;1209;48.410;9.054;2023-03-14T00:13:58;94639.69;;;10.08;100.00
2397;BME280;1209;48.410;9.054;2023-03-14T00:16:26;94635.66;;;10.13;100.00
2397;BME280;1209;48.410;9.054;2023-03-14T00:18:51;94603.03;;;10.03;100.00
2397;BME280;1209;48.410;9.054;2023-03-14T00:21:17;94605.25;;;10.00;100.00
2397;BME280;1209;48.410;9.054;2023-03-14T00:23:43;94603.03;;;10.03;100.00
2397;BME280;1209;48.410;9.054;2023-03-14T00:26:14;94633.69;;;10.08;100.00
2397;BME280;1209;48.410;9.054;2023-03-14T00:28:41;94645.06;;;10.14;100.00
2397;BME280;1209;48.410;9.054;2023-03-14T00:31:08;94631.38;;;10.18;100.00
2397;BME280;1209;48.410;9.054;2023-03-14T00:33:34;94626.81;;;10.14;100.00
2397;BME280;1209;48.410;9.054;2023-03-14T00:36:03;94627.81;;;10.13;100.00
2397;BME280;1209;48.410;9.054;2023-03-14T00:38:30;94639.84;;;10.14;100.00
2397;BME280;1209;48.410;9.054;2023-03-14T00:40:56;94652.09;;;10.13;100.00
2397;BME280;1209;48.410;9.054;2023-03-14T00:43:21;94664.56;;;10.11;100.00
2397;BME280;1209;48.410;9.054;2023-03-14T00:45:48;94664.13;;;10.14;100.00
2397;BME280;1209;48.410;9.054;2023-03-14T00:48:14;94660.88;;;10.19;100.00
2397;BME280;1209;48.410;9.054;2023-03-14T00:50:39;94677.53;;;10.18;100.00
2397;BME280;1209;48.410;9.054;2023-03-14T00:53:04;94680.09;;;10.31;100.00
2397;BME280;1209;48.410;9.054;2023-03-14T00:55:30;94687.31;;;10.29;100.00
2397;BME280;1209;48.410;9.054;2023-03-14T00:57:55;94689.34;;;10.27;100.00
2397;BME280;1209;48.410;9.054;2023-03-14T01:00:20;94674.72;;;10.26;100.00
2397;BME280;1209;48.410;9.054;2023-03-14T01:02:46;94690.19;;;10.21;100.00
2397;BME280;1209;48.410;9.054;2023-03-14T01:05:11;94684.97;;;10.21;100.00
2397;BME280;1209;48.410;9.054;2023-03-14T01:07:36;94695.00;;;10.24;100.00
2397;BME280;1209;48.410;9.054;2023-03-14T01:10:03;94687.97;;;10.24;100.00
2397;BME280;1209;48.410;9.054;2023-03-14T01:12:29;94683.34;;;10.26;100.00
2397;BME280;1209;48.410;9.054;2023-03-14T01:14:54;94672.31;;;10.18;100.00
2397;BME280;1209;48.410;9.054;2023-03-14T01:17:19;94656.88;;;10.23;100.00
2397;BME280;1209;48.410;9.054;2023-03-14T01:19:45;94642.44;;;10.20;100.00
2397;BME280;1209;48.410;9.054;2023-03-14T01:22:10;94648.63;;;10.26;100.00
2397;BME280;1209;48.410;9.054;2023-03-14T01:24:36;94654.22;;;10.29;100.00
2397;BME280;1209;48.410;9.054;2023-03-14T01:27:02;94651.53;;;10.36;100.00
2397;BME280;1209;48.410;9.054;2023-03-14T01:29:27;94658.94;;;10.39;100.00
2397;BME280;1209;48.410;9.054;2023-03-14T01:31:53;94644.50;;;10.36;100.00
2397;BME280;1209;48.410;9.054;2023-03-14T01:34:18;94647.19;;;10.30;100.00
2397;BME280;1209;48.410;9.054;2023-03-14T01:36:43;94634.94;;;10.30;100.00
2397;BME280;1209;48.410;9.054;2023-03-14T01:39:08;94625.94;;;10.26;100.00
2397;BME280;1209;48.410;9.054;2023-03-14T01:41:35;94618.47;;;10.30;100.00
2397;BME280;1209;48.410;9.054;2023-03-14T01:44:02;94625.72;;;10.28;100.00
2397;BME280;1209;48.410;9.054;2023-03-14T01:46:37;94619.66;;;10.34;100.00
2397;BME280;1209;48.410;9.054;2023-03-14T01:49:33;94617.47;;;10.31;100.00
2397;BME280;1209;48.410;9.054;2023-03-14T01:52:19;94610.88;;;10.28;100.00
2397;BME280;1209;48.410;9.054;2023-03-14T01:54:52;94596.22;;;10.27;100.00
2397;BME280;1209;48.410;9.054;2023-03-14T01:57:22;94602.66;;;10.25;100.00
2397;BME280;1209;48.410;9.054;2023-03-14T01:59:53;94614.91;;;10.24;100.00
2397;BME280;1209;48.410;9.054;2023-03-14T02:02:19;94614.91;;;10.24;100.00
2397;BME280;1209;48.410;9.054;2023-03-14T02:04:45;94604.91;;;10.21;100.00
2397;BME280;1209;48.410;9.054;2023-03-14T02:07:20;94608.91;;;10.24;100.00
2397;BME280;1209;48.410;9.054;2023-03-14T02:09:48;94615.28;;;10.28;100.00
2397;BME280;1209;48.410;9.054;2023-03-14T02:12:15;94600.44;;;10.28;100.00
2397;BME280;1209;48.410;9.054;2023-03-14T02:14:42;94598.63;;;10.29;100.00
2397;BME280;1209;48.410;9.054;2023-03-14T02:17:13;94581.00;;;10.24;100.00
2397;BME280;1209;48.410;9.054;2023-03-14T02:22:27;94567.69;;;10.32;100.00
2397;BME280;1209;48.410;9.054;2023-03-14T02:25:28;94560.50;;;10.28;100.00
2397;BME280;1209;48.410;9.054;2023-03-14T02:28:00;94570.38;;;10.19;100.00
2397;BME280;1209;48.410;9.054;2023-03-14T02:30:28;94576.00;;;10.23;100.00
2397;BME280;1209;48.410;9.054;2023-03-14T02:33:04;94565.34;;;10.24;100.00
2397;BME280;1209;48.410;9.054;2023-03-14T02:35:34;94570.56;;;10.24;100.00
2397;BME280;1209;48.410;9.054;2023-03-14T02:38:05;94580.06;;;10.12;100.00
2397;BME280;1209;48.410;9.054;2023-03-14T02:40:34;94566.09;;;10.06;100.00
2397;BME280;1209;48.410;9.054;2023-03-14T02:42:59;94567.69;;;10.07;100.00
2397;BME280;1209;48.410;9.054;2023-03-14T02:45:33;94562.88;;;10.04;100.00
2397;BME280;1209;48.410;9.054;2023-03-14T02:48:04;94564.31;;;10.00;100.00
2397;BME280;1209;48.410;9.054;2023-03-14T02:50:32;94567.31;;;10.04;100.00
2397;BME280;1209;48.410;9.054;2023-03-14T02:52:59;94557.50;;;9.99;100.00
2397;BME280;1209;48.410;9.054;2023-03-14T02:55:24;94560.72;;;10.01;100.00
2397;BME280;1209;48.410;9.054;2023-03-14T02:57:51;94561.94;;;9.99;100.00
2397;BME280;1209;48.410;9.054;2023-03-14T03:00:17;94565.34;;;9.99;100.00
2397;BME280;1209;48.410;9.054;2023-03-14T03:02:43;94578.38;;;9.99;100.00
2397;BME280;1209;48.410;9.054;2023-03-14T03:05:08;94556.34;;;9.95;100.00
2397;BME280;1209;48.410;9.054;2023-03-14T03:07:33;94552.16;;;9.94;100.00
2397;BME280;1209;48.410;9.054;2023-03-14T03:09:59;94549.94;;;9.91;100.00
2397;BME280;1209;48.410;9.054;2023-03-14T03:12:24;94556.97;;;9.91;100.00
2397;BME280;1209;48.410;9.054;2023-03-14T03:14:49;94557.38;;;9.88;100.00
2397;BME280;1209;48.410;9.054;2023-03-14T03:17:14;94552.38;;;9.86;100.00
2397;BME280;1209;48.410;9.054;2023-03-14T03:19:40;94538.59;;;9.79;100.00
2397;BME280;1209;48.410;9.054;2023-03-14T03:22:05;94528.38;;;9.77;100.00
2397;BME280;1209;48.410;9.054;2023-03-14T03:24:31;94526.56;;;9.78;100.00
2397;BME280;1209;48.410;9.054;2023-03-14T03:26:56;94527.16;;;9.80;100.00
2397;BME280;1209;48.410;9.054;2023-03-14T03:29:21;94520.78;;;9.76;100.00
2397;BME280;1209;48.410;9.054;2023-03-14T03:31:46;94518.22;;;9.69;100.00
2397;BME280;1209;48.410;9.054;2023-03-14T03:34:13;94521.47;;;9.65;100.00
2397;BME280;1209;48.410;9.054;2023-03-14T03:36:38;94514.66;;;9.64;100.00
2397;BME280;1209;48.410;9.054;2023-03-14T03:39:04;94506.25;;;9.62;100.00
2397;BME280;1209;48.410;9.054;2023-03-14T03:41:30;94504.66;;;9.61;100.00
2397;BME280;1209;48.410;9.054;2023-03-14T03:43:56;94510.31;;;9.58;100.00
2397;BME280;1209;48.410;9.054;2023-03-14T03:46:21;94493.91;;;9.51;100.00
2397;BME280;1209;48.410;9.054;2023-03-14T03:48:47;94501.94;;;9.49;100.00
2397;BME280;1209;48.410;9.054;2023-03-14T03:51:14;94505.16;;;9.44;100.00
2397;BME280;1209;48.410;9.054;2023-03-14T03:53:40;94500.97;;;9.43;100.00
2397;BME280;1209;48.410;9.054;2023-03-14T03:56:06;94490.97;;;9.40;100.00
2397;BME280;1209;48.410;9.054;2023-03-14T03:58:31;94497.75;;;9.41;100.00
2397;BME280;1209;48.410;9.054;2023-03-14T04:00:56;94509.41;;;9.39;100.00
2397;BME280;1209;48.410;9.054;2023-03-14T04:03:22;94513.03;;;9.38;100.00
2397;BME280;1209;48.410;9.054;2023-03-14T04:06:00;94500.00;;;9.38;100.00
2397;BME280;1209;48.410;9.054;2023-03-14T04:08:26;94505.19;;;9.38;100.00
2397;BME280;1209;48.410;9.054;2023-03-14T04:10:57;94507.81;;;9.38;100.00
2397;BME280;1209;48.410;9.054;2023-03-14T04:13:23;94500.56;;;9.40;100.00
2397;BME280;1209;48.410;9.054;2023-03-14T04:15:50;94507.59;;;9.39;100.00
2397;BME280;1209;48.410;9.054;2023-03-14T04:18:15;94501.53;;;9.45;100.00
2397;BME280;1209;48.410;9.054;2023-03-14T04:20:40;94499.38;;;9.42;100.00
2397;BME280;1209;48.410;9.054;2023-03-14T04:23:05;94504.16;;;9.45;100.00
2397;BME280;1209;48.410;9.054;2023-03-14T04:25:31;94493.53;;;9.47;100.00
2397;BME280;1209;48.410;9.054;2023-03-14T04:27:56;94490.88;;;9.54;100.00
2397;BME280;1209;48.410;9.054;2023-03-14T04:30:21;94477.66;;;9.55;100.00
2397;BME280;1209;48.410;9.054;2023-03-14T04:32:47;94473.81;;;9.58;100.00
2397;BME280;1209;48.410;9.054;2023-03-14T04:35:12;94461.63;;;9.52;100.00
2397;BME280;1209;48.410;9.054;2023-03-14T04:37:37;94456.75;;;9.62;100.00
2397;BME280;1209;48.410;9.054;2023-03-14T04:40:03;94449.94;;;9.61;100.00
2397;BME280;1209;48.410;9.054;2023-03-14T04:42:31;94448.50;;;9.65;100.00
2397;BME280;1209;48.410;9.054;2023-03-14T04:44:56;94448.88;;;9.68;100.00
2397;BME280;1209;48.410;9.054;2023-03-14T04:47:21;94433.00;;;9.70;100.00
2397;BME280;1209;48.410;9.054;2023-03-14T04:49:47;94429.97;;;9.73;100.00
2397;BME280;1209;48.410;9.054;2023-03-14T04:52:12;94431.00;;;9.72;100.00
2397;BME280;1209;48.410;9.054;2023-03-14T04:54:37;94428.16;;;9.73;100.00
2397;BME280;1209;48.410;9.054;2023-03-14T04:57:02;94421.00;;;9.69;100.00
2397;BME280;1209;48.410;9.054;2023-03-14T04:59:28;94418.81;;;9.66;100.00
2397;BME280;1209;48.410;9.054;2023-03-14T05:01:53;94416.78;;;9.68;100.00
2397;BME280;1209;48.410;9.054;2023-03-14T05:04:18;94407.53;;;9.72;100.00
2397;BME280;1209;48.410;9.054;2023-03-14T05:06:43;94408.13;;;9.74;100.00
2397;BME280;1209;48.410;9.054;2023-03-14T05:09:09;94395.28;;;9.72;100.00
2397;BME280;1209;48.410;9.054;2023-03-14T05:11:34;94400.16;;;9.69;100.00
2397;BME280;1209;48.410;9.054;2023-03-14T05:14:00;94397.75;;;9.67;100.00
2397;BME280;1209;48.410;9.054;2023-03-14T05:16:25;94394.28;;;9.73;100.00
2397;BME280;1209;48.410;9.054;2023-03-14T05:18:50;94380.59;;;9.78;100.00
2397;BME280;1209;48.410;9.054;2023-03-14T05:21:16;94387.63;;;9.77;100.00
2397;BME280;1209;48.410;9.054;2023-03-14T05:23:41;94380.97;;;9.82;100.00
2397;BME280;1209;48.410;9.054;2023-03-14T05:26:06;94368.16;;;9.80;100.00
2397;BME280;1209;48.410;9.054;2023-03-14T05:28:31;94348.53;;;9.77;100.00
2397;BME280;1209;48.410;9.054;2023-03-14T05:30:57;94349.91;;;9.80;100.00
2397;BME280;1209;48.410;9.054;2023-03-14T05:33:22;94349.53;;;9.76;100.00
2397;BME280;1209;48.410;9.054;2023-03-14T05:35:47;94347.38;;;9.73;100.00
2397;BME280;1209;48.410;9.054;2023-03-14T05:38:12;94350.41;;;9.70;100.00
2397;BME280;1209;48.410;9.054;2023-03-14T05:40:38;94348.16;;;9.74;100.00
2397;BME280;1209;48.410;9.054;2023-03-14T05:43:03;94342.88;;;9.81;100.00
2397;BME280;1209;48.410;9.054;2023-03-14T05:45:28;94352.06;;;9.83;100.00
2397;BME280;1209;48.410;9.054;2023-03-14T05:47:54;94356.94;;;9.79;100.00
2397;BME280;1209;48.410;9.054;2023-03-14T05:50:19;94336.88;;;9.80;100.00
2397;BME280;1209;48.410;9.054;2023-03-14T05:52:44;94343.53;;;9.76;100.00
2397;BME280;1209;48.410;9.054;2023-03-14T05:55:09;94339.78;;;9.72;100.00
2397;BME280;1209;48.410;9.054;2023-03-14T05:57:35;94335.56;;;9.71;100.00
2397;BME280;1209;48.410;9.054;2023-03-14T06:00:00;94334.56;;;9.72;100.00
2397;BME280;1209;48.410;9.054;2023-03-14T06:02:25;94332.53;;;9.74;100.00
2397;BME280;1209;48.410;9.054;2023-03-14T06:04:51;94330.94;;;9.73;100.00
2397;BME280;1209;48.410;9.054;2023-03-14T06:07:16;94339.56;;;9.73;100.00
2397;BME280;1209;48.410;9.054;2023-03-14T06:09:41;94328.69;;;9.76;100.00
2397;BME280;1209;48.410;9.054;2023-03-14T06:12:06;94328.91;;;9.75;100.00
2397;BME280;1209;48.410;9.054;2023-03-14T06:14:32;94316.09;;;9.73;100.00
2397;BME280;1209;48.410;9.054;2023-03-14T06:16:57;94312.91;;;9.71;100.00
2397;BME280;1209;48.410;9.054;2023-03-14T06:19:24;94313.69;;;9.72;100.00
2397;BME280;1209;48.410;9.054;2023-03-14T06:21:51;94317.91;;;9.73;100.00
2397;BME280;1209;48.410;9.054;2023-03-14T06:24:16;94317.91;;;9.73;100.00
2397;BME280;1209;48.410;9.054;2023-03-14T06:26:41;94310.66;;;9.75;100.00
2397;BME280;1209;48.410;9.054;2023-03-14T06:29:07;94304.78;;;9.79;100.00
2397;BME280;1209;48.410;9.054;2023-03-14T06:31:32;94305.72;;;9.85;100.00
2397;BME280;1209;48.410;9.054;2023-03-14T06:33:58;94306.31;;;9.87;100.00
2397;BME280;1209;48.410;9.054;2023-03-14T06:36:23;94307.91;;;9.88;100.00
2397;BME280;1209;48.410;9.054;2023-03-14T06:38:48;94306.66;;;9.91;100.00
2397;BME280;1209;48.410;9.054;2023-03-14T06:41:14;94312.47;;;9.93;100.00
2397;BME280;1209;48.410;9.054;2023-03-14T06:43:39;94310.06;;;9.91;100.00
2397;BME280;1209;48.410;9.054;2023-03-14T06:46:05;94312.63;;;9.98;100.00
2397;BME280;1209;48.410;9.054;2023-03-14T06:48:30;94324.66;;;9.99;100.00
2397;BME280;1209;48.410;9.054;2023-03-14T06:50:55;94313.41;;;9.98;100.00
2397;BME280;1209;48.410;9.054;2023-03-14T06:53:21;94313.63;;;9.97;100.00
2397;BME280;1209;48.410;9.054;2023-03-14T06:55:46;94311.81;;;9.97;100.00
2397;BME280;1209;48.410;9.054;2023-03-14T06:58:11;94316.25;;;9.97;100.00
2397;BME280;1209;48.410;9.054;2023-03-14T07:00:37;94314.00;;;10.00;100.00
2397;BME280;1209;48.410;9.054;2023-03-14T07:03:02;94316.69;;;9.94;100.00
2397;BME280;1209;48.410;9.054;2023-03-14T07:05:28;94314.06;;;9.94;100.00
2397;BME280;1209;48.410;9.054;2023-03-14T07:07:53;94329.50;;;9.95;100.00
2397;BME280;1209;48.410;9.054;2023-03-14T07:10:18;94323.34;;;10.08;100.00
2397;BME280;1209;48.410;9.054;2023-03-14T07:12:44;94320.84;;;10.13;100.00
2397;BME280;1209;48.410;9.054;2023-03-14T07:15:09;94324.22;;;10.20;100.00
2397;BME280;1209;48.410;9.054;2023-03-14T07:17:34;94337.16;;;10.27;100.00
2397;BME280;1209;48.410;9.054;2023-03-14T07:20:00;94329.81;;;10.35;100.00
2397;BME280;1209;48.410;9.054;2023-03-14T07:22:26;94338.00;;;10.39;100.00
2397;BME280;1209;48.410;9.054;2023-03-14T07:24:51;94349.19;;;10.46;100.00
2397;BME280;1209;48.410;9.054;2023-03-14T07:27:16;94342.41;;;10.57;100.00
2397;BME280;1209;48.410;9.054;2023-03-14T07:29:42;94330.50;;;10.61;100.00
2397;BME280;1209;48.410;9.054;2023-03-14T07:32:07;94337.78;;;10.70;100.00
2397;BME280;1209;48.410;9.054;2023-03-14T07:34:33;94341.94;;;10.90;100.00
2397;BME280;1209;48.410;9.054;2023-03-14T07:36:58;94349.22;;;10.99;100.00
2397;BME280;1209;48.410;9.054;2023-03-14T07:39:24;94352.00;;;10.86;100.00
2397;BME280;1209;48.410;9.054;2023-03-14T07:41:49;94359.28;;;10.84;100.00
2397;BME280;1209;48.410;9.054;2023-03-14T07:44:14;94369.03;;;10.77;100.00
2397;BME280;1209;48.410;9.054;2023-03-14T07:46:39;94377.56;;;10.84;100.00
2397;BME280;1209;48.410;9.054;2023-03-14T07:49:05;94376.81;;;10.95;100.00
2397;BME280;1209;48.410;9.054;2023-03-14T07:51:30;94376.25;;;10.93;100.00
2397;BME280;1209;48.410;9.054;2023-03-14T07:53:55;94369.66;;;10.91;100.00
2397;BME280;1209;48.410;9.054;2023-03-14T07:56:20;94384.91;;;11.06;100.00
2397;BME280;1209;48.410;9.054;2023-03-14T07:58:46;94373.09;;;11.15;100.00
2397;BME280;1209;48.410;9.054;2023-03-14T08:01:11;94387.00;;;11.39;100.00
2397;BME280;1209;48.410;9.054;2023-03-14T08:03:36;94386.22;;;11.61;100.00
2397;BME280;1209;48.410;9.054;2023-03-14T08:06:02;94389.41;;;11.63;100.00
2397;BME280;1209;48.410;9.054;2023-03-14T08:08:27;94391.44;;;11.73;100.00
2397;BME280;1209;48.410;9.054;2023-03-14T08:10:52;94396.44;;;11.75;100.00
2397;BME280;1209;48.410;9.054;2023-03-14T08:13:18;94401.44;;;11.64;100.00
2397;BME280;1209;48.410;9.054;2023-03-14T08:15:47;94398.50;;;11.49;100.00
2397;BME280;1209;48.410;9.054;2023-03-14T08:18:13;94412.91;;;11.40;100.00
2397;BME280;1209;48.410;9.054;2023-03-14T08:20:38;94408.50;;;11.41;100.00
2397;BME280;1209;48.410;9.054;2023-03-14T08:23:04;94395.94;;;11.31;100.00
2397;BME280;1209;48.410;9.054;2023-03-14T08:25:29;94405.03;;;11.28;100.00
2397;BME280;1209;48.410;9.054;2023-03-14T08:27:55;94398.91;;;11.34;100.00
2397;BME280;1209;48.410;9.054;2023-03-14T08:30:21;94403.25;;;11.41;100.00
2397;BME280;1209;48.410;9.054;2023-03-14T08:32:46;94408.03;;;11.44;100.00
2397;BME280;1209;48.410;9.054;2023-03-14T08:35:12;94398.84;;;11.53;100.00
2397;BME280;1209;48.410;9.054;2023-03-14T08:37:38;94406.34;;;11.61;100.00
2397;BME280;1209;48.410;9.054;2023-03-14T08:40:05;94412.63;;;11.95;100.00
2397;BME280;1209;48.410;9.054;2023-03-14T08:42:35;94410.09;;;12.12;100.00
2397;BME280;1209;48.410;9.054;2023-03-14T08:45:01;94410.91;;;12.64;100.00
2397;BME280;1209;48.410;9.054;2023-03-14T08:47:26;94404.41;;;12.67;100.00
2397;BME280;1209;48.410;9.054;2023-03-14T08:49:52;94413.09;;;12.55;100.00
2397;BME280;1209;48.410;9.054;2023-03-14T08:52:17;94419.75;;;12.35;100.00
2397;BME280;1209;48.410;9.054;2023-03-14T08:54:43;94417.00;;;12.29;100.00
2397;BME280;1209;48.410;9.054;2023-03-14T08:57:09;94407.56;;;12.28;100.00
2397;BME280;1209;48.410;9.054;2023-03-14T08:59:34;94406.81;;;12.16;100.00
2397;BME280;1209;48.410;9.054;2023-03-14T09:01:59;94415.66;;;12.27;100.00
2397;BME280;1209;48.410;9.054;2023-03-14T09:04:28;94415.81;;;12.09;100.00
2397;BME280;1209;48.410;9.054;2023-03-14T09:06:53;94418.75;;;12.12;100.00
2397;BME280;1209;48.410;9.054;2023-03-14T09:09:19;94428.31;;;12.07;100.00
2397;BME280;1209;48.410;9.054;2023-03-14T09:11:44;94429.13;;;11.95;100.00
2397;BME280;1209;48.410;9.054;2023-03-14T09:14:09;94428.44;;;11.88;100.00
2397;BME280;1209;48.410;9.054;2023-03-14T09:16:35;94435.44;;;11.76;100.00
2397;BME280;1209;48.410;9.054;2023-03-14T09:19:00;94433.97;;;11.57;100.00
2397;BME280;1209;48.410;9.054;2023-03-14T09:21:26;94436.34;;;11.47;100.00
2397;BME280;1209;48.410;9.054;2023-03-14T09:23:52;94441.31;;;11.37;100.00
2397;BME280;1209;48.410;9.054;2023-03-14T09:26:18;94456.63;;;11.33;100.00
2397;BME280;1209;48.410;9.054;2023-03-14T09:28:43;94460.25;;;11.32;100.00
2397;BME280;1209;48.410;9.054;2023-03-14T09:31:10;94440.53;;;11.06;100.00
2397;BME280;1209;48.410;9.054;2023-03-14T09:33:36;94451.31;;;10.98;100.00
2397;BME280;1209;48.410;9.054;2023-03-14T09:36:03;94458.38;;;10.79;100.00
2397;BME280;1209;48.410;9.054;2023-03-14T09:38:28;94452.06;;;10.68;100.00
2397;BME280;1209;48.410;9.054;2023-03-14T09:40:54;94471.22;;;10.62;100.00
2397;BME280;1209;48.410;9.054;2023-03-14T09:43:21;94468.69;;;10.56;100.00
2397;BME280;1209;48.410;9.054;2023-03-14T09:45:48;94448.41;;;10.58;100.00
2397;BME280;1209;48.410;9.054;2023-03-14T09:48:19;94460.44;;;10.59;100.00
2397;BME280;1209;48.410;9.054;2023-03-14T09:50:48;94449.09;;;10.65;100.00
2397;BME280;1209;48.410;9.054;2023-03-14T09:53:17;94457.53;;;10.67;100.00
2397;BME280;1209;48.410;9.054;2023-03-14T09:55:45;94452.28;;;10.67;100.00
2397;BME280;1209;48.410;9.054;2023-03-14T09:58:13;94458.22;;;10.74;100.00
2397;BME280;1209;48.410;9.054;2023-03-14T10:00:40;94455.66;;;10.86;100.00
2397;BME280;1209;48.410;9.054;2023-03-14T10:03:22;94453.69;;;10.99;100.00
2397;BME280;1209;48.410;9.054;2023-03-14T10:05:47;94449.06;;;11.01;100.00
2397;BME280;1209;48.410;9.054;2023-03-14T10:08:13;94445.31;;;11.09;100.00
2397;BME280;1209;48.410;9.054;2023-03-14T10:10:40;94438.41;;;11.15;100.00
2397;BME280;1209;48.410;9.054;2023-03-14T10:13:14;94440.47;;;11.24;100.00
2397;BME280;1209;48.410;9.054;2023-03-14T10:15:40;94435.19;;;11.43;100.00
2397;BME280;1209;48.410;9.054;2023-03-14T10:18:11;94434.41;;;11.42;100.00
2397;BME280;1209;48.410;9.054;2023-03-14T10:20:41;94431.34;;;11.45;100.00
2397;BME280;1209;48.410;9.054;2023-03-14T10:25:42;94456.09;;;11.43;100.00
2397;BME280;1209;48.410;9.054;2023-03-14T10:28:29;94443.84;;;11.43;100.00
2397;BME280;1209;48.410;9.054;2023-03-14T10:30:55;94444.75;;;11.49;100.00
2397;BME280;1209;48.410;9.054;2023-03-14T10:33:24;94440.78;;;11.58;100.00
2397;BME280;1209;48.410;9.054;2023-03-14T10:36:02;94449.88;;;11.55;100.00
2397;BME280;1209;48.410;9.054;2023-03-14T10:38:30;94449.53;;;11.63;100.00
2397;BME280;1209;48.410;9.054;2023-03-14T10:40:56;94457.59;;;11.62;100.00
2397;BME280;1209;48.410;9.054;2023-03-14T10:43:25;94467.03;;;11.63;100.00
2397;BME280;1209;48.410;9.054;2023-03-14T10:45:58;94472.59;;;11.55;100.00
2397;BME280;1209;48.410;9.054;2023-03-14T10:48:32;94465.91;;;11.59;100.00
2397;BME280;1209;48.410;9.054;2023-03-14T10:51:10;94463.16;;;11.54;100.00
2397;BME280;1209;48.410;9.054;2023-03-14T10:56:27;94481.22;;;11.44;100.00
2397;BME280;1209;48.410;9.054;2023-03-14T10:58:54;94476.72;;;11.32;100.00
2397;BME280;1209;48.410;9.054;2023-03-14T11:07:04;94493.03;;;10.86;100.00
2397;BME280;1209;48.410;9.054;2023-03-14T11:09:50;94505.94;;;10.81;100.00
2397;BME280;1209;48.410;9.054;2023-03-14T11:15:04;94513.84;;;10.75;100.00
2397;BME280;1209;48.410;9.054;2023-03-14T11:17:36;94515.03;;;10.60;100.00
2397;BME280;1209;48.410;9.054;2023-03-14T11:20:31;94516.47;;;10.56;100.00
2397;BME280;1209;48.410;9.054;2023-03-14T11:23:12;94517.78;;;10.65;100.00
2397;BME280;1209;48.410;9.054;2023-03-14T11:25:54;94522.50;;;10.57;100.00
2397;BME280;1209;48.410;9.054;2023-03-14T11:28:37;94533.44;;;10.47;100.00
2397;BME280;1209;48.410;9.054;2023-03-14T11:31:29;94527.69;;;10.38;100.00
2397;BME280;1209;48.410;9.054;2023-03-14T11:36:38;94539.28;;;10.18;100.00
2397;BME280;1209;48.410;9.054;2023-03-14T11:39:11;94530.78;;;10.04;100.00
2397;BME280;1209;48.410;9.054;2023-03-14T11:41:40;94534.63;;;10.01;100.00
2397;BME280;1209;48.410;9.054;2023-03-14T11:44:22;94532.91;;;10.14;100.00
2397;BME280;1209;48.410;9.054;2023-03-14T11:49:53;94539.47;;;10.23;100.00
2397;BME280;1209;48.410;9.054;2023-03-14T11:52:39;94548.03;;;10.30;100.00
2397;BME280;1209;48.410;9.054;2023-03-14T11:55:17;94551.28;;;10.25;100.00
2397;BME280;1209;48.410;9.054;2023-03-14T11:57:44;94549.00;;;10.10;100.00
2397;BME280;1209;48.410;9.054;2023-03-14T12:00:19;94545.38;;;10.12;100.00
2397;BME280;1209;48.410;9.054;2023-03-14T12:10:48;94559.34;;;9.92;100.00
2397;BME280;1209;48.410;9.054;2023-03-14T12:13:16;94565.03;;;9.83;100.00
2397;BME280;1209;48.410;9.054;2023-03-14T12:15:49;94582.16;;;9.72;100.00
2397;BME280;1209;48.410;9.054;2023-03-14T12:18:20;94594.28;;;9.60;100.00
2397;BME280;1209;48.410;9.054;2023-03-14T12:20:54;94607.34;;;9.53;100.00
2397;BME280;1209;48.410;9.054;2023-03-14T12:23:21;94662.34;;;9.32;100.00
2397;BME280;1209;48.410;9.054;2023-03-14T12:25:47;94669.09;;;8.68;100.00
2397;BME280;1209;48.410;9.054;2023-03-14T12:28:21;94684.91;;;8.34;100.00
2397;BME280;1209;48.410;9.054;2023-03-14T12:30:47;94682.47;;;8.26;100.00
2397;BME280;1209;48.410;9.054;2023-03-14T12:33:20;94694.88;;;8.10;100.00
2397;BME280;1209;48.410;9.054;2023-03-14T12:35:52;94691.06;;;8.06;100.00
2397;BME280;1209;48.410;9.054;2023-03-14T12:41:15;94702.47;;;8.18;100.00
2397;BME280;1209;48.410;9.054;2023-03-14T12:43:42;94714.53;;;8.39;100.00
2397;BME280;1209;48.410;9.054;2023-03-14T12:48:40;94716.72;;;8.42;100.00
2397;BME280;1209;48.410;9.054;2023-03-14T12:51:13;94732.28;;;8.29;100.00
2397;BME280;1209;48.410;9.054;2023-03-14T12:59:26;94757.34;;;9.23;100.00
2397;BME280;1209;48.410;9.054;2023-03-14T13:01:55;94761.63;;;9.68;100.00
2397;BME280;1209;48.410;9.054;2023-03-14T13:04:27;94777.94;;;9.37;100.00
2397;BME280;1209;48.410;9.054;2023-03-14T13:06:56;94768.72;;;9.35;100.00
2397;BME280;1209;48.410;9.054;2023-03-14T13:11:50;94794.38;;;9.38;100.00
2397;BME280;1209;48.410;9.054;2023-03-14T13:14:16;94802.19;;;9.31;100.00
2397;BME280;1209;48.410;9.054;2023-03-14T13:16:43;94808.03;;;9.07;100.00
2397;BME280;1209;48.410;9.054;2023-03-14T13:19:27;94805.22;;;8.82;100.00
2397;BME280;1209;48.410;9.054;2023-03-14T13:22:03;94827.44;;;8.84;100.00
2397;BME280;1209;48.410;9.054;2023-03-14T13:24:29;94845.84;;;8.76;100.00
2397;BME280;1209;48.410;9.054;2023-03-14T13:26:56;94847.66;;;8.69;100.00
2397;BME280;1209;48.410;9.054;2023-03-14T13:29:23;94865.59;;;8.44;100.00
2397;BME280;1209;48.410;9.054;2023-03-14T13:31:51;94885.78;;;8.42;100.00
2397;BME280;1209;48.410;9.054;2023-03-14T13:34:17;94881.19;;;8.38;100.00
2397;BME280;1209;48.410;9.054;2023-03-14T13:36:43;94888.09;;;8.24;100.00
2397;BME280;1209;48.410;9.054;2023-03-14T13:39:21;94885.28;;;8.19;100.00
2397;BME280;1209;48.410;9.054;2023-03-14T13:41:50;94897.91;;;8.22;100.00
2397;BME280;1209;48.410;9.054;2023-03-14T13:44:29;94918.72;;;8.29;100.00
2397;BME280;1209;48.410;9.054;2023-03-14T13:47:00;94919.72;;;8.28;100.00
2397;BME280;1209;48.410;9.054;2023-03-14T13:49:27;94936.31;;;8.20;100.00
2397;BME280;1209;48.410;9.054;2023-03-14T13:51:54;94937.78;;;8.01;100.00
2397;BME280;1209;48.410;9.054;2023-03-14T13:54:21;94955.50;;;7.91;100.00
2397;BME280;1209;48.410;9.054;2023-03-14T13:56:47;94952.06;;;7.84;100.00
2397;BME280;1209;48.410;9.054;2023-03-14T13:59:27;94968.03;;;7.81;100.00
2397;BME280;1209;48.410;9.054;2023-03-14T14:01:54;94979.44;;;7.80;100.00